Time;durP1;ratioP1;P1;durP2;ratioP2;P2;SDS_P1;SDS_P2;PMS_P1;PMS_P2;Temp;Humidity;BMP_temperature;BMP_pressure;BME280_temperature;BME280_humidity;BME280_pressure;Samples;Min_cycle;Max_cycle;Signal;HPM_P1;HPM_P2
2021/08/27 00:01:30;;;;;;;17.67;10.23;;;;;;;;;;5092425;28;20399;-62
2021/08/27 00:03:56;;;;;;;20.65;10.90;;;;;;;;;;5092495;28;20032;-63
2021/08/27 00:06:22;;;;;;;18.13;10.35;;;;;;;;;;5091252;28;20016;-62
2021/08/27 00:08:48;;;;;;;20.13;10.35;;;;;;;;;;5093698;28;20025;-62
2021/08/27 00:11:14;;;;;;;23.98;11.32;;;;;;;;;;5091906;28;20024;-60
2021/08/27 00:13:44;;;;;;;20.45;11.00;;;;;;;;;;5092558;28;20031;-63
2021/08/27 00:16:11;;;;;;;20.13;10.40;;;;;;;;;;5092430;28;20451;-63
2021/08/27 00:18:37;;;;;;;17.60;10.48;;;;;;;;;;5092989;28;20035;-62
2021/08/27 00:21:03;;;;;;;16.67;9.90;;;;;;;;;;5091758;28;20407;-62
2021/08/27 00:23:29;;;;;;;21.42;10.60;;;;;;;;;;5093247;28;20103;-62
2021/08/27 00:25:55;;;;;;;18.23;10.45;;;;;;;;;;5091106;28;20059;-63
2021/08/27 00:28:21;;;;;;;18.88;10.55;;;;;;;;;;5090849;28;20032;-63
2021/08/27 00:30:47;;;;;;;19.52;10.70;;;;;;;;;;5093070;28;20024;-62
2021/08/27 00:33:13;;;;;;;27.35;11.25;;;;;;;;;;5091648;28;20048;-62
2021/08/27 00:35:41;;;;;;;18.85;10.68;;;;;;;;;;5092422;28;20028;-62
2021/08/27 00:38:14;;;;;;;;;;;;;;;;;;5093120;28;20028;-62
2021/08/27 00:40:40;;;;;;;18.17;10.05;;;;;;;;;;5074699;28;19904;-62
2021/08/27 00:43:06;;;;;;;17.17;10.77;;;;;;;;;;5092844;28;20027;-63
2021/08/27 00:45:32;;;;;;;26.13;12.32;;;;;;;;;;5091793;28;20539;-62
2021/08/27 00:47:59;;;;;;;20.23;10.75;;;;;;;;;;5092738;28;20031;-61
2021/08/27 00:50:24;;;;;;;23.27;10.18;;;;;;;;;;5092213;28;20115;-58
2021/08/27 00:52:50;;;;;;;19.00;9.25;;;;;;;;;;5091020;28;20490;-63
2021/08/27 00:55:17;;;;;;;18.75;9.57;;;;;;;;;;5090793;28;20024;-63
2021/08/27 00:57:43;;;;;;;17.88;10.30;;;;;;;;;;5090701;28;20142;-62
2021/08/27 01:00:09;;;;;;;20.80;10.63;;;;;;;;;;5091279;28;20130;-63
2021/08/27 01:02:35;;;;;;;21.70;10.13;;;;;;;;;;5092564;28;20028;-62
2021/08/27 01:05:01;;;;;;;17.90;10.25;;;;;;;;;;5092190;28;20058;-60
2021/08/27 01:07:27;;;;;;;18.33;10.50;;;;;;;;;;5091773;28;20031;-62
2021/08/27 01:09:53;;;;;;;17.83;10.88;;;;;;;;;;5092293;28;20391;-63
2021/08/27 01:12:26;;;;;;;20.15;10.15;;;;;;;;;;5092436;28;20031;-62
2021/08/27 01:15:03;;;;;;;18.05;9.93;;;;;;;;;;5092158;28;20024;-62
2021/08/27 01:17:34;;;;;;;22.95;11.05;;;;;;;;;;5090258;28;20135;-62
2021/08/27 01:20:26;;;;;;;21.45;10.43;;;;;;;;;;5091614;28;20016;-63
2021/08/27 01:23:11;;;;;;;19.10;10.10;;;;;;;;;;5088656;28;20555;-62
2021/08/27 01:25:38;;;;;;;18.15;9.95;;;;;;;;;;5089790;28;20115;-62
2021/08/27 01:28:06;;;;;;;19.60;10.63;;;;;;;;;;5090145;28;20020;-63
2021/08/27 01:30:40;;;;;;;24.45;11.20;;;;;;;;;;5056611;28;20062;-60
2021/08/27 01:33:16;;;;;;;16.73;10.05;;;;;;;;;;5073666;28;20554;-62
2021/08/27 01:35:50;;;;;;;22.13;10.00;;;;;;;;;;5090847;28;20051;-62
2021/08/27 01:38:17;;;;;;;20.63;10.27;;;;;;;;;;5091515;28;20035;-62
2021/08/27 01:40:47;;;;;;;24.75;10.07;;;;;;;;;;5090883;28;20030;-62
2021/08/27 01:43:14;;;;;;;18.90;9.60;;;;;;;;;;5091912;28;20391;-63
2021/08/27 01:45:41;;;;;;;20.27;10.38;;;;;;;;;;5090963;28;20024;-63
2021/08/27 01:48:07;;;;;;;18.38;9.70;;;;;;;;;;5091609;28;20032;-63
2021/08/27 01:50:35;;;;;;;21.45;10.70;;;;;;;;;;5091416;28;20122;-63
2021/08/27 01:53:02;;;;;;;21.35;10.50;;;;;;;;;;5091784;28;20153;-63
2021/08/27 01:55:28;;;;;;;23.73;9.75;;;;;;;;;;5090819;28;20028;-62
2021/08/27 01:57:55;;;;;;;17.23;9.48;;;;;;;;;;5090121;28;20062;-62
2021/08/27 02:00:21;;;;;;;20.20;9.82;;;;;;;;;;5091672;28;20028;-63
2021/08/27 02:02:47;;;;;;;16.50;10.02;;;;;;;;;;5090394;28;20020;-62
2021/08/27 02:05:14;;;;;;;25.65;11.48;;;;;;;;;;5089947;28;20047;-62
2021/08/27 02:07:40;;;;;;;20.00;10.07;;;;;;;;;;5090083;28;20028;-63
2021/08/27 02:10:06;;;;;;;18.67;9.77;;;;;;;;;;5091786;28;20036;-63
2021/08/27 02:12:32;;;;;;;18.23;9.68;;;;;;;;;;5095125;28;20103;-62
2021/08/27 02:14:59;;;;;;;20.58;9.88;;;;;;;;;;5095294;28;20069;-63
2021/08/27 02:17:25;;;;;;;20.45;10.02;;;;;;;;;;5094748;28;20035;-61
2021/08/27 02:19:52;;;;;;;19.40;10.23;;;;;;;;;;5094155;28;20040;-63
2021/08/27 02:22:19;;;;;;;16.58;10.30;;;;;;;;;;5095400;28;20059;-62
2021/08/27 02:24:57;;;;;;;19.65;10.48;;;;;;;;;;5095482;28;20032;-63
2021/08/27 02:27:23;;;;;;;17.95;10.32;;;;;;;;;;5093342;28;20035;-62
2021/08/27 02:29:51;;;;;;;19.50;10.60;;;;;;;;;;5094109;28;20069;-62
2021/08/27 02:32:18;;;;;;;17.83;10.80;;;;;;;;;;5094357;28;20433;-63
2021/08/27 02:34:45;;;;;;;19.73;10.75;;;;;;;;;;5095082;28;20345;-62
2021/08/27 02:37:12;;;;;;;21.67;10.77;;;;;;;;;;5094591;28;20383;-63
2021/08/27 02:39:38;;;;;;;20.60;10.40;;;;;;;;;;5094656;28;20039;-62
2021/08/27 02:42:05;;;;;;;18.27;10.27;;;;;;;;;;5094934;28;20115;-60
2021/08/27 02:44:31;;;;;;;20.55;10.52;;;;;;;;;;5094978;28;20095;-62
2021/08/27 02:46:57;;;;;;;20.92;10.35;;;;;;;;;;5094489;28;20048;-62
2021/08/27 02:49:23;;;;;;;18.10;10.25;;;;;;;;;;5093351;28;20110;-63
2021/08/27 02:52:05;;;;;;;18.88;10.00;;;;;;;;;;5095093;28;20434;-62
2021/08/27 02:54:32;;;;;;;18.40;10.23;;;;;;;;;;5094706;28;20020;-62
2021/08/27 02:57:03;;;;;;;17.85;10.30;;;;;;;;;;5094281;28;20097;-62
2021/08/27 02:59:29;;;;;;;16.20;10.73;;;;;;;;;;5094534;28;20384;-62
2021/08/27 03:01:56;;;;;;;19.75;11.40;;;;;;;;;;5094651;28;20388;-63
2021/08/27 03:04:22;;;;;;;20.65;10.77;;;;;;;;;;5093416;28;20089;-62
2021/08/27 03:06:51;;;;;;;19.05;10.20;;;;;;;;;;5093886;28;20422;-63
2021/08/27 03:09:17;;;;;;;19.50;10.77;;;;;;;;;;5094307;28;20027;-63
2021/08/27 03:11:50;;;;;;;18.23;10.45;;;;;;;;;;5094435;28;20081;-62
2021/08/27 03:14:22;;;;;;;20.13;10.23;;;;;;;;;;5076607;28;20145;-63
2021/08/27 03:16:49;;;;;;;18.15;9.95;;;;;;;;;;5092159;28;20036;-61
2021/08/27 03:19:17;;;;;;;18.35;9.90;;;;;;;;;;5093641;28;20088;-62
2021/08/27 03:21:46;;;;;;;19.80;10.95;;;;;;;;;;5093854;28;20022;-62
2021/08/27 03:24:15;;;;;;;19.35;10.52;;;;;;;;;;5094031;28;20050;-63
2021/08/27 03:26:43;;;;;;;19.63;11.13;;;;;;;;;;5092346;28;20020;-62
2021/08/27 03:29:11;;;;;;;17.60;10.20;;;;;;;;;;5092673;28;20052;-62
2021/08/27 03:31:38;;;;;;;18.20;10.90;;;;;;;;;;5093025;28;20270;-61
2021/08/27 03:34:04;;;;;;;20.23;10.32;;;;;;;;;;5093702;28;20031;-62
2021/08/27 03:36:31;;;;;;;19.10;10.55;;;;;;;;;;5091510;28;20086;-62
2021/08/27 03:38:59;;;;;;;19.90;10.88;;;;;;;;;;5093610;28;20048;-62
2021/08/27 03:41:27;;;;;;;20.23;10.68;;;;;;;;;;5093539;28;20028;-62
2021/08/27 03:43:53;;;;;;;19.83;11.55;;;;;;;;;;5093709;28;20086;-62
2021/08/27 03:46:20;;;;;;;20.27;10.40;;;;;;;;;;5091697;28;20502;-62
2021/08/27 03:48:46;;;;;;;20.90;12.63;;;;;;;;;;5092617;28;20614;-62
2021/08/27 03:51:12;;;;;;;22.98;11.35;;;;;;;;;;5093566;28;20368;-62
2021/08/27 03:53:38;;;;;;;19.23;11.25;;;;;;;;;;5093444;28;20047;-63
2021/08/27 03:56:05;;;;;;;21.80;11.63;;;;;;;;;;5093154;28;20062;-63
2021/08/27 03:58:31;;;;;;;21.33;11.70;;;;;;;;;;5091959;28;20027;-61
2021/08/27 04:00:57;;;;;;;20.00;11.95;;;;;;;;;;5093230;28;20032;-62
2021/08/27 04:03:24;;;;;;;22.52;12.30;;;;;;;;;;5092217;28;20031;-62
2021/08/27 04:06:01;;;;;;;21.77;12.45;;;;;;;;;;5091302;28;20024;-62
2021/08/27 04:08:27;;;;;;;23.33;13.23;;;;;;;;;;5093033;28;20353;-62
2021/08/27 04:10:53;;;;;;;24.02;12.77;;;;;;;;;;5092858;28;20020;-62
2021/08/27 04:13:19;;;;;;;20.88;13.40;;;;;;;;;;5092197;28;20047;-62
2021/08/27 04:15:45;;;;;;;27.70;14.68;;;;;;;;;;5092466;28;20496;-62
2021/08/27 04:18:11;;;;;;;21.48;14.23;;;;;;;;;;5093062;28;20169;-62
2021/08/27 04:20:37;;;;;;;22.00;14.43;;;;;;;;;;5093476;28;20505;-62
2021/08/27 04:23:03;;;;;;;22.95;13.88;;;;;;;;;;5091670;28;20032;-62
2021/08/27 04:25:29;;;;;;;22.27;14.82;;;;;;;;;;5092312;28;20369;-62
2021/08/27 04:27:55;;;;;;;27.95;14.23;;;;;;;;;;5091564;28;20020;-62
2021/08/27 04:30:22;;;;;;;24.60;14.38;;;;;;;;;;5092735;28;20024;-62
2021/08/27 04:32:48;;;;;;;22.70;14.43;;;;;;;;;;5092039;28;20096;-62
2021/08/27 04:35:14;;;;;;;23.20;13.98;;;;;;;;;;5090699;28;20475;-62
2021/08/27 04:37:39;;;;;;;22.60;13.05;;;;;;;;;;5092574;28;20018;-62
2021/08/27 04:40:06;;;;;;;23.15;13.60;;;;;;;;;;5094190;28;20468;-59
2021/08/27 04:42:32;;;;;;;23.65;13.35;;;;;;;;;;5093034;28;20473;-60
2021/08/27 04:44:58;;;;;;;21.95;13.70;;;;;;;;;;5091104;28;20067;-60
2021/08/27 04:47:24;;;;;;;21.83;12.65;;;;;;;;;;5091667;28;20115;-61
2021/08/27 04:49:50;;;;;;;21.10;12.05;;;;;;;;;;5091119;28;20043;-61
2021/08/27 04:52:16;;;;;;;23.30;11.95;;;;;;;;;;5092675;28;20195;-61
2021/08/27 04:54:42;;;;;;;19.48;12.40;;;;;;;;;;5090989;28;20478;-60
2021/08/27 04:57:08;;;;;;;23.38;11.85;;;;;;;;;;5091673;28;20035;-61
2021/08/27 04:59:34;;;;;;;19.30;11.80;;;;;;;;;;5092476;28;20032;-60
2021/08/27 05:02:00;;;;;;;21.92;12.63;;;;;;;;;;5091824;28;20032;-61
2021/08/27 05:04:27;;;;;;;19.50;11.93;;;;;;;;;;5091957;28;20104;-59
2021/08/27 05:06:53;;;;;;;20.50;10.73;;;;;;;;;;5089972;28;20020;-60
2021/08/27 05:09:19;;;;;;;22.35;11.40;;;;;;;;;;5091739;28;20099;-62
2021/08/27 05:11:46;;;;;;;20.90;11.63;;;;;;;;;;5091460;28;20024;-63
2021/08/27 05:14:12;;;;;;;20.88;11.23;;;;;;;;;;5091684;28;20244;-60
2021/08/27 05:16:38;;;;;;;21.25;11.00;;;;;;;;;;5090820;28;20033;-60
2021/08/27 05:19:04;;;;;;;18.20;10.63;;;;;;;;;;5091640;28;20027;-60
2021/08/27 05:21:30;;;;;;;19.88;11.25;;;;;;;;;;5091571;28;20028;-60
2021/08/27 05:23:56;;;;;;;19.33;11.00;;;;;;;;;;5090454;28;20376;-60
2021/08/27 05:26:22;;;;;;;20.45;10.90;;;;;;;;;;5090722;28;20098;-56
2021/08/27 05:28:49;;;;;;;19.85;11.05;;;;;;;;;;5091343;28;20575;-60
2021/08/27 05:31:15;;;;;;;16.45;9.95;;;;;;;;;;5091221;28;20038;-59
2021/08/27 05:33:41;;;;;;;17.35;10.48;;;;;;;;;;5091361;28;20475;-60
2021/08/27 05:36:08;;;;;;;17.70;9.50;;;;;;;;;;5090500;28;20016;-58
2021/08/27 05:38:33;;;;;;;16.92;9.80;;;;;;;;;;5090057;28;20101;-60
2021/08/27 05:40:59;;;;;;;19.67;9.93;;;;;;;;;;5091254;28;20028;-60
2021/08/27 05:43:26;;;;;;;18.80;9.88;;;;;;;;;;5091312;28;20023;-61
2021/08/27 05:45:52;;;;;;;18.40;9.70;;;;;;;;;;5094251;28;20032;-59
2021/08/27 05:48:19;;;;;;;16.17;9.45;;;;;;;;;;5095439;28;20052;-60
2021/08/27 05:50:45;;;;;;;20.15;10.18;;;;;;;;;;5094182;28;20407;-61
2021/08/27 05:53:11;;;;;;;18.05;10.13;;;;;;;;;;5096419;28;20020;-61
2021/08/27 05:55:37;;;;;;;18.38;9.52;;;;;;;;;;5094397;28;20384;-61
2021/08/27 05:58:03;;;;;;;17.05;10.30;;;;;;;;;;5095242;28;20028;-58
2021/08/27 06:00:29;;;;;;;19.83;9.73;;;;;;;;;;5095574;28;20027;-60
2021/08/27 06:02:55;;;;;;;18.25;9.48;;;;;;;;;;5095405;28;20024;-59
2021/08/27 06:05:21;;;;;;;17.50;9.15;;;;;;;;;;5094449;28;20369;-60
2021/08/27 06:07:47;;;;;;;17.23;9.35;;;;;;;;;;5094726;28;20054;-60
2021/08/27 06:10:14;;;;;;;16.48;9.70;;;;;;;;;;5092251;28;20369;-61
2021/08/27 06:12:40;;;;;;;18.05;10.07;;;;;;;;;;5094684;28;20016;-62
2021/08/27 06:15:06;;;;;;;19.42;9.35;;;;;;;;;;5078904;28;20131;-57
2021/08/27 06:17:32;;;;;;;19.85;9.40;;;;;;;;;;5094834;28;20047;-62
2021/08/27 06:19:58;;;;;;;16.65;9.02;;;;;;;;;;5076471;28;20024;-60
2021/08/27 06:22:25;;;;;;;22.08;9.85;;;;;;;;;;5095023;28;20028;-59
2021/08/27 06:24:51;;;;;;;17.83;9.80;;;;;;;;;;5076685;28;20052;-60
2021/08/27 06:27:17;;;;;;;20.38;9.60;;;;;;;;;;5094203;28;20062;-60
2021/08/27 06:29:43;;;;;;;22.88;10.43;;;;;;;;;;5094519;28;20021;-61
2021/08/27 06:32:09;;;;;;;18.02;9.15;;;;;;;;;;5094830;28;20039;-58
2021/08/27 06:34:36;;;;;;;23.73;10.60;;;;;;;;;;5094371;28;20098;-57
2021/08/27 06:37:02;;;;;;;19.80;9.15;;;;;;;;;;5093791;28;20024;-60
2021/08/27 06:39:28;;;;;;;17.40;8.85;;;;;;;;;;5094182;28;20035;-59
2021/08/27 06:41:54;;;;;;;17.55;9.20;;;;;;;;;;5094199;28;20024;-59
2021/08/27 06:44:20;;;;;;;18.60;9.40;;;;;;;;;;5094731;28;20068;-61
2021/08/27 06:46:46;;;;;;;19.00;10.40;;;;;;;;;;5094055;28;20051;-62
2021/08/27 06:49:12;;;;;;;18.40;9.60;;;;;;;;;;5076342;28;20056;-61
2021/08/27 06:51:39;;;;;;;17.92;9.25;;;;;;;;;;5094485;28;20016;-60
2021/08/27 06:54:05;;;;;;;19.20;10.10;;;;;;;;;;5094557;28;20027;-59
2021/08/27 06:56:31;;;;;;;18.05;9.43;;;;;;;;;;5092884;28;20041;-58
2021/08/27 06:58:57;;;;;;;17.75;8.73;;;;;;;;;;5075868;28;20068;-55
2021/08/27 07:01:23;;;;;;;19.10;10.32;;;;;;;;;;5093888;28;20024;-62
2021/08/27 07:03:49;;;;;;;19.17;9.45;;;;;;;;;;5075976;28;20115;-57
2021/08/27 07:06:15;;;;;;;18.75;9.80;;;;;;;;;;5093462;28;20024;-59
2021/08/27 07:08:42;;;;;;;16.52;9.38;;;;;;;;;;5094021;28;20108;-60
2021/08/27 07:11:08;;;;;;;16.05;8.98;;;;;;;;;;5094074;28;20192;-61
2021/08/27 07:13:34;;;;;;;19.77;9.90;;;;;;;;;;5094145;28;20480;-57
2021/08/27 07:16:00;;;;;;;18.35;10.48;;;;;;;;;;5093632;28;20028;-62
2021/08/27 07:18:27;;;;;;;15.52;9.00;;;;;;;;;;5093926;28;20028;-60
2021/08/27 07:20:53;;;;;;;19.48;9.35;;;;;;;;;;5075939;28;20020;-62
2021/08/27 07:23:19;;;;;;;16.88;9.43;;;;;;;;;;5094133;28;20047;-58
2021/08/27 07:25:45;;;;;;;16.08;9.07;;;;;;;;;;5093423;28;20049;-62
2021/08/27 07:28:12;;;;;;;16.23;9.30;;;;;;;;;;5076302;28;20032;-63
2021/08/27 07:30:39;;;;;;;17.65;10.02;;;;;;;;;;5093852;28;20434;-62
2021/08/27 07:33:05;;;;;;;17.83;8.95;;;;;;;;;;5094486;28;20160;-62
2021/08/27 07:35:31;;;;;;;17.17;9.80;;;;;;;;;;5093220;28;20024;-62
2021/08/27 07:37:58;;;;;;;17.35;10.15;;;;;;;;;;5075991;28;20040;-59
2021/08/27 07:40:24;;;;;;;17.90;9.88;;;;;;;;;;5074508;28;20380;-62
2021/08/27 07:42:50;;;;;;;17.85;10.23;;;;;;;;;;5093434;28;20032;-62
2021/08/27 07:45:16;;;;;;;18.83;10.27;;;;;;;;;;5074318;28;20032;-61
2021/08/27 07:47:43;;;;;;;19.95;10.10;;;;;;;;;;5075214;28;20053;-63
2021/08/27 07:50:09;;;;;;;20.25;9.70;;;;;;;;;;5093423;28;20024;-62
2021/08/27 07:52:36;;;;;;;17.88;10.00;;;;;;;;;;5093255;28;20388;-63
2021/08/27 07:55:03;;;;;;;17.00;9.85;;;;;;;;;;5075057;28;20050;-63
2021/08/27 07:57:28;;;;;;;16.52;9.90;;;;;;;;;;5074668;28;20031;-52
2021/08/27 07:59:54;;;;;;;16.98;10.15;;;;;;;;;;5093285;28;20036;-58
2021/08/27 08:02:20;;;;;;;19.33;9.95;;;;;;;;;;5093091;28;20070;-56
2021/08/27 08:04:46;;;;;;;17.45;9.73;;;;;;;;;;5092765;28;20086;-62
2021/08/27 08:07:12;;;;;;;19.58;10.52;;;;;;;;;;5092749;28;20024;-62
2021/08/27 08:09:38;;;;;;;16.83;9.20;;;;;;;;;;5092462;28;20125;-60
2021/08/27 08:12:05;;;;;;;20.15;9.95;;;;;;;;;;5092719;28;20046;-61
2021/08/27 08:14:31;;;;;;;19.00;10.00;;;;;;;;;;5092906;28;20032;-62
2021/08/27 08:16:57;;;;;;;21.13;10.15;;;;;;;;;;5091844;28;20522;-63
2021/08/27 08:19:23;;;;;;;18.23;10.00;;;;;;;;;;5092565;28;20032;-62
2021/08/27 08:21:49;;;;;;;17.30;9.50;;;;;;;;;;5092527;28;20027;-62
2021/08/27 08:24:15;;;;;;;17.95;9.70;;;;;;;;;;5093032;28;20051;-62
2021/08/27 08:26:41;;;;;;;19.35;9.75;;;;;;;;;;5092141;28;20021;-60
2021/08/27 08:29:07;;;;;;;17.52;10.10;;;;;;;;;;5092695;28;20145;-63
2021/08/27 08:31:34;;;;;;;18.85;10.32;;;;;;;;;;5074654;28;20062;-62
2021/08/27 08:34:00;;;;;;;16.85;9.82;;;;;;;;;;5092650;28;20027;-55
2021/08/27 08:36:26;;;;;;;18.02;9.48;;;;;;;;;;5074190;28;20441;-59
2021/08/27 08:38:52;;;;;;;17.33;10.07;;;;;;;;;;5074437;28;20035;-55
2021/08/27 08:41:19;;;;;;;17.45;9.98;;;;;;;;;;5090238;28;20103;-58
2021/08/27 08:43:46;;;;;;;20.20;10.00;;;;;;;;;;5072710;28;20024;-58
2021/08/27 08:46:12;;;;;;;18.27;9.98;;;;;;;;;;5090754;28;20127;-58
2021/08/27 08:48:40;;;;;;;15.73;9.23;;;;;;;;;;5091427;28;20131;-58
2021/08/27 08:51:06;;;;;;;15.97;9.40;;;;;;;;;;5091587;28;20032;-60
2021/08/27 08:53:35;;;;;;;16.90;9.50;;;;;;;;;;5091714;28;20467;-59
2021/08/27 08:56:02;;;;;;;16.30;9.85;;;;;;;;;;5073353;28;20405;-58
2021/08/27 08:58:28;;;;;;;16.70;10.38;;;;;;;;;;5092052;28;20016;-56
2021/08/27 09:00:54;;;;;;;16.60;10.15;;;;;;;;;;5073808;28;20465;-58
2021/08/27 09:03:20;;;;;;;18.20;10.43;;;;;;;;;;5091845;28;20028;-57
2021/08/27 09:05:46;;;;;;;23.67;11.05;;;;;;;;;;5091355;28;20369;-56
2021/08/27 09:08:15;;;;;;;18.13;10.68;;;;;;;;;;5073381;28;20036;-53
2021/08/27 09:10:45;;;;;;;17.95;10.85;;;;;;;;;;5091393;28;20020;-52
2021/08/27 09:13:11;;;;;;;16.58;10.88;;;;;;;;;;5091905;28;20047;-59
2021/08/27 09:15:37;;;;;;;17.77;11.10;;;;;;;;;;5091505;28;20016;-58
2021/08/27 09:18:10;;;;;;;18.63;10.50;;;;;;;;;;5091570;28;20012;-55
2021/08/27 09:20:36;;;;;;;16.10;10.77;;;;;;;;;;5091271;28;20028;-54
2021/08/27 09:23:04;;;;;;;17.58;10.60;;;;;;;;;;5091590;28;20054;-57
2021/08/27 09:25:34;;;;;;;15.90;10.23;;;;;;;;;;5091265;28;20028;-57
2021/08/27 09:28:09;;;;;;;18.15;10.65;;;;;;;;;;5092340;28;20493;-57
2021/08/27 09:30:40;;;;;;;16.25;10.43;;;;;;;;;;5073482;28;20040;-57
2021/08/27 09:33:10;;;;;;;19.95;11.10;;;;;;;;;;5091486;28;20024;-58
2021/08/27 09:35:36;;;;;;;15.90;10.63;;;;;;;;;;5091845;28;20028;-59
2021/08/27 09:38:02;;;;;;;16.00;10.80;;;;;;;;;;5093074;28;20024;-55
2021/08/27 09:40:30;;;;;;;23.45;11.13;;;;;;;;;;5091622;28;20396;-56
2021/08/27 09:42:57;;;;;;;18.90;11.57;;;;;;;;;;5091834;28;20028;-55
2021/08/27 09:45:37;;;;;;;17.35;11.32;;;;;;;;;;5090957;28;20028;-56
2021/08/27 09:48:04;;;;;;;20.23;12.25;;;;;;;;;;5073572;28;20044;-57
2021/08/27 09:50:32;;;;;;;18.35;11.90;;;;;;;;;;5091015;28;20047;-58
2021/08/27 09:52:59;;;;;;;19.00;12.43;;;;;;;;;;5073360;28;20112;-57
2021/08/27 09:55:26;;;;;;;19.70;11.70;;;;;;;;;;5090830;28;20024;-55
2021/08/27 09:58:00;;;;;;;16.45;11.90;;;;;;;;;;5091278;28;20069;-57
2021/08/27 10:00:26;;;;;;;16.55;11.48;;;;;;;;;;5091712;28;20722;-54
2021/08/27 10:02:52;;;;;;;17.05;11.23;;;;;;;;;;5091334;28;20117;-57
2021/08/27 10:05:18;;;;;;;16.63;11.00;;;;;;;;;;5090640;28;20016;-57
2021/08/27 10:07:45;;;;;;;15.52;11.55;;;;;;;;;;5072734;28;20039;-55
2021/08/27 10:10:13;;;;;;;17.33;12.00;;;;;;;;;;5090664;28;20490;-57
2021/08/27 10:12:40;;;;;;;18.60;12.32;;;;;;;;;;5072997;28;20024;-58
2021/08/27 10:15:07;;;;;;;16.30;12.13;;;;;;;;;;5072871;28;20472;-59
2021/08/27 10:17:37;;;;;;;18.10;13.00;;;;;;;;;;5091578;28;20020;-57
2021/08/27 10:20:07;;;;;;;18.80;12.43;;;;;;;;;;5091201;28;20023;-59
2021/08/27 10:22:35;;;;;;;17.27;11.50;;;;;;;;;;5072509;28;20024;-60
2021/08/27 10:25:05;;;;;;;20.75;11.45;;;;;;;;;;5090881;28;20028;-59
2021/08/27 10:27:32;;;;;;;17.02;11.13;;;;;;;;;;5090231;28;20081;-59
2021/08/27 10:29:58;;;;;;;18.35;11.73;;;;;;;;;;5090636;28;20063;-53
2021/08/27 10:32:39;;;;;;;17.30;11.52;;;;;;;;;;5093238;28;20058;-58
2021/08/27 10:40:49;;;;;;;20.52;17.90;;;;;;;;;;5111898;28;20479;-58
2021/08/27 10:43:15;;;;;;;19.83;17.75;;;;;;;;;;5097554;28;20023;-58
2021/08/27 10:45:41;;;;;;;21.67;17.90;;;;;;;;;;5096720;28;20079;-57
2021/08/27 10:48:08;;;;;;;21.15;17.45;;;;;;;;;;5115700;28;20031;-58
2021/08/27 10:50:34;;;;;;;22.08;16.90;;;;;;;;;;5115311;28;20020;-60
2021/08/27 10:53:19;;;;;;;20.88;16.40;;;;;;;;;;5097289;28;20024;-60
2021/08/27 10:55:45;;;;;;;23.38;17.38;;;;;;;;;;5096000;28;20043;-59
2021/08/27 10:58:14;;;;;;;21.17;16.30;;;;;;;;;;5114906;28;20498;-59
2021/08/27 11:00:47;;;;;;;20.65;16.70;;;;;;;;;;5115410;28;20506;-59
2021/08/27 11:03:15;;;;;;;18.70;16.02;;;;;;;;;;5115271;28;20024;-60
2021/08/27 11:05:42;;;;;;;21.92;16.35;;;;;;;;;;5096235;28;20655;-61
2021/08/27 11:08:12;;;;;;;22.88;16.73;;;;;;;;;;5114866;28;20467;-61
2021/08/27 11:10:40;;;;;;;22.13;16.67;;;;;;;;;;5113799;28;20020;-58
2021/08/27 11:13:11;;;;;;;19.35;14.82;;;;;;;;;;5096600;28;20020;-59
2021/08/27 11:15:37;;;;;;;19.02;14.93;;;;;;;;;;5113625;28;20015;-59
2021/08/27 11:18:06;;;;;;;18.70;14.90;;;;;;;;;;4756880;28;9999895;-60
2021/08/27 11:20:32;;;;;;;19.67;14.80;;;;;;;;;;5092943;28;20028;-60
2021/08/27 11:41:22;;;;;;;19.45;15.93;;;;;;;;;;5101506;28;20113;-61
2021/08/27 11:43:57;;;;;;;18.27;15.50;;;;;;;;;;5099820;28;20076;-58
2021/08/27 11:46:26;;;;;;;18.75;14.82;;;;;;;;;;5099101;28;20016;-59
2021/08/27 11:49:05;;;;;;;17.42;13.65;;;;;;;;;;5105115;28;20068;-58
2021/08/27 12:00:43;;;;;;;20.80;11.10;;;;;;;;;;5111120;28;20092;-59
2021/08/27 12:03:11;;;;;;;17.45;11.13;;;;;;;;;;5110965;28;20066;-60
2021/08/27 12:05:37;;;;;;;17.58;12.55;;;;;;;;;;5091294;28;20516;-57
2021/08/27 12:08:04;;;;;;;18.05;12.20;;;;;;;;;;5091903;28;20387;-59
2021/08/27 12:10:32;;;;;;;16.92;13.15;;;;;;;;;;5091901;28;20468;-59
2021/08/27 12:12:58;;;;;;;18.95;13.95;;;;;;;;;;5092375;28;20047;-59
2021/08/27 12:15:29;;;;;;;17.20;13.27;;;;;;;;;;5110030;28;20019;-59
2021/08/27 12:17:59;;;;;;;17.73;13.70;;;;;;;;;;5097115;28;20024;-59
2021/08/27 12:20:30;;;;;;;19.73;14.18;;;;;;;;;;5089893;28;20028;-59
2021/08/27 12:23:01;;;;;;;17.75;14.05;;;;;;;;;;5072010;28;20074;-65
2021/08/27 12:25:30;;;;;;;18.15;14.43;;;;;;;;;;5089679;28;20118;-62
2021/08/27 12:27:57;;;;;;;19.27;14.70;;;;;;;;;;5090483;28;20055;-58
2021/08/27 12:30:24;;;;;;;20.45;14.43;;;;;;;;;;5092607;28;20020;-59
2021/08/27 12:32:51;;;;;;;19.48;14.70;;;;;;;;;;5074573;28;20022;-59
2021/08/27 12:35:20;;;;;;;18.65;14.60;;;;;;;;;;5092141;28;20024;-60
2021/08/27 12:37:48;;;;;;;17.90;14.50;;;;;;;;;;5074659;28;20016;-61
2021/08/27 12:40:15;;;;;;;18.00;13.77;;;;;;;;;;5092520;28;20040;-58
2021/08/27 12:43:04;;;;;;;19.63;13.35;;;;;;;;;;4740693;28;9999691;-58
2021/08/27 12:45:47;;;;;;;19.13;12.80;;;;;;;;;;5070386;28;20027;-61
2021/08/27 12:48:29;;;;;;;18.08;13.05;;;;;;;;;;5070608;28;20060;-57
2021/08/27 12:51:04;;;;;;;16.45;13.27;;;;;;;;;;5070900;28;20035;-58
2021/08/27 12:53:37;;;;;;;16.95;14.05;;;;;;;;;;5088692;28;20026;-56
2021/08/27 12:56:16;;;;;;;17.65;14.00;;;;;;;;;;5069768;28;20488;-59
2021/08/27 12:58:46;;;;;;;17.45;14.05;;;;;;;;;;5088807;28;20032;-59
2021/08/27 13:01:16;;;;;;;19.98;14.32;;;;;;;;;;5089279;28;20028;-59
2021/08/27 13:03:43;;;;;;;17.73;14.27;;;;;;;;;;5089183;28;20402;-58
2021/08/27 13:06:27;;;;;;;17.45;14.57;;;;;;;;;;5092296;28;20484;-59
2021/08/27 13:08:57;;;;;;;17.45;14.70;;;;;;;;;;5073926;28;20029;-57
2021/08/27 13:11:23;;;;;;;17.63;14.75;;;;;;;;;;5104687;28;20027;-60
2021/08/27 13:13:50;;;;;;;17.50;14.70;;;;;;;;;;5111006;28;20031;-59
2021/08/27 13:16:16;;;;;;;19.20;15.40;;;;;;;;;;5112471;28;20024;-59
2021/08/27 13:18:50;;;;;;;17.98;14.80;;;;;;;;;;5095100;28;20130;-59
2021/08/27 13:21:18;;;;;;;19.83;14.77;;;;;;;;;;5114698;28;20020;-60
2021/08/27 13:23:45;;;;;;;17.83;14.82;;;;;;;;;;5095606;28;20019;-58
2021/08/27 13:26:21;;;;;;;19.27;14.40;;;;;;;;;;5110071;28;20115;-60
2021/08/27 13:28:47;;;;;;;17.52;15.18;;;;;;;;;;5113331;28;20045;-61
2021/08/27 13:31:13;;;;;;;18.35;14.90;;;;;;;;;;5095168;28;20024;-60
2021/08/27 13:33:39;;;;;;;18.27;15.60;;;;;;;;;;5113503;28;20042;-58
2021/08/27 13:36:05;;;;;;;18.17;14.75;;;;;;;;;;5113700;28;20068;-59
2021/08/27 13:38:31;;;;;;;17.65;15.30;;;;;;;;;;5113355;28;20038;-60
2021/08/27 13:40:57;;;;;;;17.77;14.93;;;;;;;;;;5094993;28;20024;-59
2021/08/27 13:43:23;;;;;;;16.85;15.02;;;;;;;;;;5113396;28;20019;-59
2021/08/27 13:45:49;;;;;;;19.05;15.77;;;;;;;;;;5112911;28;20111;-57
2021/08/27 13:48:15;;;;;;;23.25;15.60;;;;;;;;;;5114162;28;20031;-60
2021/08/27 13:50:42;;;;;;;18.02;15.38;;;;;;;;;;5114757;28;20487;-59
2021/08/27 13:53:08;;;;;;;17.35;14.43;;;;;;;;;;5095082;28;20502;-60
2021/08/27 13:55:34;;;;;;;17.00;14.38;;;;;;;;;;5113201;28;20019;-58
2021/08/27 13:58:00;;;;;;;16.73;13.82;;;;;;;;;;5095524;28;20035;-59
2021/08/27 14:00:26;;;;;;;16.63;13.63;;;;;;;;;;5113512;28;20028;-59
2021/08/27 14:02:52;;;;;;;16.45;14.10;;;;;;;;;;5094421;28;20176;-59
2021/08/27 14:05:18;;;;;;;17.08;13.63;;;;;;;;;;5094579;28;20084;-58
2021/08/27 14:07:44;;;;;;;17.05;13.25;;;;;;;;;;5117079;28;20027;-60
2021/08/27 14:10:10;;;;;;;16.67;13.18;;;;;;;;;;5098417;28;20032;-58
2021/08/27 14:12:37;;;;;;;16.30;13.50;;;;;;;;;;5117463;28;20038;-59
2021/08/27 14:15:03;;;;;;;17.27;14.02;;;;;;;;;;5099081;28;20023;-59
2021/08/27 14:17:29;;;;;;;18.08;14.23;;;;;;;;;;5116392;28;20144;-59
2021/08/27 14:19:55;;;;;;;19.50;14.35;;;;;;;;;;5117816;28;20060;-60
2021/08/27 14:22:21;;;;;;;18.00;15.10;;;;;;;;;;5116781;28;20111;-59
2021/08/27 14:24:47;;;;;;;20.02;15.50;;;;;;;;;;4394251;28;10000726;-59
2021/08/27 14:27:13;;;;;;;19.92;15.23;;;;;;;;;;5093337;28;20659;-59
2021/08/27 14:29:39;;;;;;;19.40;14.70;;;;;;;;;;5078432;28;20031;-60
2021/08/27 14:32:05;;;;;;;19.80;14.70;;;;;;;;;;5084698;28;20392;-58
2021/08/27 14:34:31;;;;;;;18.40;14.90;;;;;;;;;;5085722;28;20030;-57
2021/08/27 14:36:57;;;;;;;19.42;15.20;;;;;;;;;;5100497;28;20020;-59
2021/08/27 14:39:23;;;;;;;20.23;14.00;;;;;;;;;;5107388;28;20035;-60
2021/08/27 14:41:49;;;;;;;19.63;16.13;;;;;;;;;;5111175;28;20047;-59
2021/08/27 14:44:16;;;;;;;17.98;15.07;;;;;;;;;;5084536;28;20030;-57
2021/08/27 14:46:42;;;;;;;17.27;13.73;;;;;;;;;;5103227;28;20438;-59
2021/08/27 14:49:08;;;;;;;17.95;14.10;;;;;;;;;;5112539;28;20035;-55
2021/08/27 14:51:34;;;;;;;19.88;14.60;;;;;;;;;;5082248;28;20132;-59
2021/08/27 14:54:00;;;;;;;17.88;14.85;;;;;;;;;;5098069;28;20046;-61